Meteo Giornale » Osservazioni meteo Svizzera » Zurigo-Kloten

ore: 08:50 - Osservazioni Meteo Zurigo-Kloten
Lat. 47° 29' N Lon. 8° 32' E Alt. 436 metri s.l.m.

sereno

17 °C

Sereno

Temp. 24 Ore

12 °C

25 °C

Nord

3.7 Km/h

Dew point 12 °C

Umidità 72 %

Visibilità  10 Km

Il sole sorge alle ore 06:44

Il sole tramonta alle ore 20:07

Data e Ora Cielo e Fenomeni T °C DP °C Um. % Pres. hPa Vis. km Vento km/h
Oggi h: 08:50 sereno Sereno 17 12 72 1023 10 N 3.7
Oggi h: 08:20 sereno Sereno 16 12 77 1023 10 N 1.8
Oggi h: 07:50 sereno Sereno 14 12 87 1023 10 N 0
Oggi h: 07:20 poco_nuvoloso Poco Nuvoloso 12 11 93 1023 10 N 3.7
Oggi h: 06:50 poco_nuvoloso Poco Nuvoloso 12 11 93 1023 10 N 3.7
Oggi h: 06:20 poco_nuvoloso Poco Nuvoloso 13 11 87 1023 10 N 3.7
Oggi h: 05:50 poco_nuvoloso Poco Nuvoloso 12 11 93 1023 10 N 3.7
Oggi h: 05:20 poco_nuvoloso Poco Nuvoloso 13 11 87 1023 10 N 3.7
Oggi h: 04:50 molto_nuvoloso Molto Nuvoloso 14 11 82 1023 10 N 1.8
Oggi h: 04:20 molto_nuvoloso Molto Nuvoloso 13 11 87 1023 10 N 3.7
Oggi h: 03:50 nuvoloso Nuvoloso 13 12 93 1023 10 N 1.8
Oggi h: 03:20 poco_nuvoloso Poco Nuvoloso 13 10 81 1023 10 N 1.8
Oggi h: 02:50 poco_nuvoloso Poco Nuvoloso 14 11 82 1023 10 N 3.7
Oggi h: 02:20 poco_nuvoloso Poco Nuvoloso 14 11 82 1023 10 N 3.7
Oggi h: 01:50 sereno Sereno 15 11 76 1023 10 S/SE 7.4
Oggi h: 01:20 sereno Sereno 15 11 76 1023 10 SE 9.3
Oggi h: 00:50 sereno Sereno 15 11 76 1023 10 N 5.5
Oggi h: 00:20 sereno Sereno 15 10 72 1023 10 S 7.4
Ieri h: 23:50 sereno Sereno 15 10 72 1022 10 N 1.8
Ieri h: 23:20 sereno Sereno 17 10 63 1022 10 N 3.7
Ieri h: 22:50 sereno Sereno 16 11 72 1022 10 N 3.7
Ieri h: 22:20 sereno Sereno 15 10 72 1022 10 N 5.5
Ieri h: 21:50 sereno Sereno 18 10 59 1022 10 N 5.5
Ieri h: 21:20 sereno Sereno 19 10 55 1021 10 N 3.7
Ieri h: 20:50 poco_nuvoloso Poco Nuvoloso 20 9 49 1021 10 N 5.5
Ieri h: 20:20 poco_nuvoloso Poco Nuvoloso 20 9 49 1021 10 O 9.3
Ieri h: 19:50 poco_nuvoloso Poco Nuvoloso 22 9 43 1020 10 NO 14.8
Ieri h: 19:20 poco_nuvoloso Poco Nuvoloso 23 10 43 1020 10 O/NO 22.2
Ieri h: 18:50 poco_nuvoloso Poco Nuvoloso 23 11 46 1020 10 O/NO 25.9
Ieri h: 18:20 poco_nuvoloso Poco Nuvoloso 24 11 43 1019 10 O/NO 24
Ieri h: 17:50 poco_nuvoloso Poco Nuvoloso 25 11 41 1019 10 O/NO 24
Ieri h: 17:20 poco_nuvoloso Poco Nuvoloso 25 10 38 1019 10 O/NO 18.5
Ieri h: 16:50 poco_nuvoloso Poco Nuvoloso 25 11 41 1019 10 O/NO 18.5
Ieri h: 16:20 poco_nuvoloso Poco Nuvoloso 25 11 41 1019 10 O/NO 13
Ieri h: 15:50 poco_nuvoloso Poco Nuvoloso 24 11 43 1019 10 NO 18.5
Ieri h: 15:20 poco_nuvoloso Poco Nuvoloso 24 12 47 1019 10 O/NO 16.7
Ieri h: 14:50 poco_nuvoloso Poco Nuvoloso 24 12 47 1019 10 NO 13
Ieri h: 14:20 poco_nuvoloso Poco Nuvoloso 23 12 49 1019 10 O/NO 14.8
Ieri h: 13:50 poco_nuvoloso Poco Nuvoloso 23 11 46 1020 10 O/NO 16.7
Ieri h: 13:20 poco_nuvoloso Poco Nuvoloso 23 13 53 1020 10 O/NO 14.8
Ieri h: 12:50 poco_nuvoloso Poco Nuvoloso 22 13 56 1020 10 O/NO 20.3
Ieri h: 12:20 poco_nuvoloso Poco Nuvoloso 22 12 53 1020 10 O/NO 18.5
Ieri h: 11:50 poco_nuvoloso Poco Nuvoloso 21 12 56 1020 10 O 22.2
Ieri h: 11:20 nuvoloso Nuvoloso 21 13 60 1020 10 O/NO 18.5
Ieri h: 10:50 nuvoloso Nuvoloso 20 14 68 1020 10 O/NO 16.7
Ieri h: 10:20 nuvoloso Nuvoloso 19 13 68 1020 10 O/NO 14.8
Ieri h: 09:50 nuvoloso Nuvoloso 18 13 72 1020 10 O/NO 20.3